sensor_id;sensor_type;location;lat;lon;timestamp;P1;durP1;ratioP1;P2;durP2;ratioP2
45128;SDS011;35512;56.312;101.728;2023-03-01T00:01:54;0.50;;;0.50;;
45128;SDS011;35512;56.312;101.728;2023-03-01T00:04:24;0.50;;;0.50;;
45128;SDS011;35512;56.312;101.728;2023-03-01T00:06:53;0.60;;;0.60;;
45128;SDS011;35512;56.312;101.728;2023-03-01T00:09:22;0.60;;;0.60;;
45128;SDS011;35512;56.312;101.728;2023-03-01T00:11:51;0.50;;;0.50;;
45128;SDS011;35512;56.312;101.728;2023-03-01T00:14:20;0.50;;;0.50;;
45128;SDS011;35512;56.312;101.728;2023-03-01T00:16:49;0.60;;;0.60;;
45128;SDS011;35512;56.312;101.728;2023-03-01T00:19:18;0.60;;;0.60;;
45128;SDS011;35512;56.312;101.728;2023-03-01T00:21:50;0.57;;;0.57;;
45128;SDS011;35512;56.312;101.728;2023-03-01T00:24:18;0.50;;;0.50;;
45128;SDS011;35512;56.312;101.728;2023-03-01T00:26:47;0.60;;;0.60;;
45128;SDS011;35512;56.312;101.728;2023-03-01T00:29:16;0.55;;;0.55;;
45128;SDS011;35512;56.312;101.728;2023-03-01T00:31:45;0.60;;;0.60;;
45128;SDS011;35512;56.312;101.728;2023-03-01T00:34:14;0.50;;;0.50;;
45128;SDS011;35512;56.312;101.728;2023-03-01T00:36:43;0.50;;;0.50;;
45128;SDS011;35512;56.312;101.728;2023-03-01T00:39:15;0.50;;;0.50;;
45128;SDS011;35512;56.312;101.728;2023-03-01T00:41:45;0.60;;;0.60;;
45128;SDS011;35512;56.312;101.728;2023-03-01T00:44:14;0.60;;;0.60;;
45128;SDS011;35512;56.312;101.728;2023-03-01T00:46:42;0.50;;;0.50;;
45128;SDS011;35512;56.312;101.728;2023-03-01T00:49:11;0.50;;;0.50;;
45128;SDS011;35512;56.312;101.728;2023-03-01T00:51:41;0.60;;;0.60;;
45128;SDS011;35512;56.312;101.728;2023-03-01T00:54:10;0.55;;;0.55;;
45128;SDS011;35512;56.312;101.728;2023-03-01T00:56:39;0.52;;;0.52;;
45128;SDS011;35512;56.312;101.728;2023-03-01T00:59:08;0.60;;;0.60;;
45128;SDS011;35512;56.312;101.728;2023-03-01T01:01:39;0.60;;;0.60;;
45128;SDS011;35512;56.312;101.728;2023-03-01T01:04:10;0.50;;;0.50;;
45128;SDS011;35512;56.312;101.728;2023-03-01T01:06:45;0.60;;;0.60;;
45128;SDS011;35512;56.312;101.728;2023-03-01T01:09:16;0.55;;;0.55;;
45128;SDS011;35512;56.312;101.728;2023-03-01T01:11:46;0.50;;;0.50;;
45128;SDS011;35512;56.312;101.728;2023-03-01T01:14:17;0.50;;;0.50;;
45128;SDS011;35512;56.312;101.728;2023-03-01T01:16:48;0.57;;;0.57;;
45128;SDS011;35512;56.312;101.728;2023-03-01T01:19:17;0.50;;;0.50;;
45128;SDS011;35512;56.312;101.728;2023-03-01T01:21:46;0.50;;;0.50;;
45128;SDS011;35512;56.312;101.728;2023-03-01T01:24:18;0.50;;;0.50;;
45128;SDS011;35512;56.312;101.728;2023-03-01T01:26:48;0.50;;;0.50;;
45128;SDS011;35512;56.312;101.728;2023-03-01T01:29:17;0.50;;;0.50;;
45128;SDS011;35512;56.312;101.728;2023-03-01T01:31:46;0.50;;;0.50;;
45128;SDS011;35512;56.312;101.728;2023-03-01T01:34:16;0.50;;;0.50;;
45128;SDS011;35512;56.312;101.728;2023-03-01T01:36:51;0.50;;;0.50;;
45128;SDS011;35512;56.312;101.728;2023-03-01T01:39:24;0.60;;;0.60;;
45128;SDS011;35512;56.312;101.728;2023-03-01T01:41:53;0.50;;;0.50;;
45128;SDS011;35512;56.312;101.728;2023-03-01T01:44:25;0.50;;;0.50;;
45128;SDS011;35512;56.312;101.728;2023-03-01T01:47:00;0.50;;;0.50;;
45128;SDS011;35512;56.312;101.728;2023-03-01T01:52:17;0.50;;;0.50;;
45128;SDS011;35512;56.312;101.728;2023-03-01T02:00:15;0.50;;;0.50;;
45128;SDS011;35512;56.312;101.728;2023-03-01T02:02:49;0.52;;;0.52;;
45128;SDS011;35512;56.312;101.728;2023-03-01T02:07:51;0.50;;;0.50;;
45128;SDS011;35512;56.312;101.728;2023-03-01T02:10:22;0.40;;;0.40;;
45128;SDS011;35512;56.312;101.728;2023-03-01T02:12:53;0.50;;;0.50;;
45128;SDS011;35512;56.312;101.728;2023-03-01T02:15:44;0.40;;;0.40;;
45128;SDS011;35512;56.312;101.728;2023-03-01T02:18:14;0.40;;;0.40;;
45128;SDS011;35512;56.312;101.728;2023-03-01T02:23:18;0.50;;;0.50;;
45128;SDS011;35512;56.312;101.728;2023-03-01T02:26:09;0.40;;;0.40;;
45128;SDS011;35512;56.312;101.728;2023-03-01T02:28:54;0.40;;;0.40;;
45128;SDS011;35512;56.312;101.728;2023-03-01T02:31:24;0.40;;;0.40;;
45128;SDS011;35512;56.312;101.728;2023-03-01T02:34:13;0.40;;;0.40;;
45128;SDS011;35512;56.312;101.728;2023-03-01T02:36:46;0.40;;;0.40;;
45128;SDS011;35512;56.312;101.728;2023-03-01T02:39:30;0.40;;;0.40;;
45128;SDS011;35512;56.312;101.728;2023-03-01T02:42:02;0.40;;;0.40;;
45128;SDS011;35512;56.312;101.728;2023-03-01T02:44:34;0.40;;;0.40;;
45128;SDS011;35512;56.312;101.728;2023-03-01T02:47:03;0.40;;;0.40;;
45128;SDS011;35512;56.312;101.728;2023-03-01T02:49:35;0.40;;;0.40;;
45128;SDS011;35512;56.312;101.728;2023-03-01T02:54:46;0.40;;;0.40;;
45128;SDS011;35512;56.312;101.728;2023-03-01T02:57:24;0.40;;;0.40;;
45128;SDS011;35512;56.312;101.728;2023-03-01T02:59:56;0.40;;;0.40;;
45128;SDS011;35512;56.312;101.728;2023-03-01T03:02:30;0.40;;;0.40;;
45128;SDS011;35512;56.312;101.728;2023-03-01T03:05:17;0.50;;;0.50;;
45128;SDS011;35512;56.312;101.728;2023-03-01T03:07:51;0.40;;;0.40;;
45128;SDS011;35512;56.312;101.728;2023-03-01T03:10:22;0.50;;;0.50;;
45128;SDS011;35512;56.312;101.728;2023-03-01T03:12:54;0.40;;;0.40;;
45128;SDS011;35512;56.312;101.728;2023-03-01T03:15:25;0.40;;;0.40;;
45128;SDS011;35512;56.312;101.728;2023-03-01T03:17:56;0.50;;;0.50;;
45128;SDS011;35512;56.312;101.728;2023-03-01T03:20:27;0.45;;;0.45;;
45128;SDS011;35512;56.312;101.728;2023-03-01T03:22:57;0.43;;;0.43;;
45128;SDS011;35512;56.312;101.728;2023-03-01T03:25:27;0.43;;;0.43;;
45128;SDS011;35512;56.312;101.728;2023-03-01T03:27:58;0.40;;;0.40;;
45128;SDS011;35512;56.312;101.728;2023-03-01T03:30:28;0.40;;;0.40;;
45128;SDS011;35512;56.312;101.728;2023-03-01T03:32:58;0.40;;;0.40;;
45128;SDS011;35512;56.312;101.728;2023-03-01T03:35:29;0.40;;;0.40;;
45128;SDS011;35512;56.312;101.728;2023-03-01T03:38:01;0.40;;;0.40;;
45128;SDS011;35512;56.312;101.728;2023-03-01T03:40:44;0.40;;;0.40;;
45128;SDS011;35512;56.312;101.728;2023-03-01T03:43:16;0.40;;;0.40;;
45128;SDS011;35512;56.312;101.728;2023-03-01T03:45:50;0.40;;;0.40;;
45128;SDS011;35512;56.312;101.728;2023-03-01T03:48:20;0.40;;;0.40;;
45128;SDS011;35512;56.312;101.728;2023-03-01T03:50:53;0.40;;;0.40;;
45128;SDS011;35512;56.312;101.728;2023-03-01T03:53:24;0.40;;;0.40;;
45128;SDS011;35512;56.312;101.728;2023-03-01T03:55:55;0.40;;;0.40;;
45128;SDS011;35512;56.312;101.728;2023-03-01T03:58:24;0.40;;;0.40;;
45128;SDS011;35512;56.312;101.728;2023-03-01T04:00:55;0.40;;;0.40;;
45128;SDS011;35512;56.312;101.728;2023-03-01T04:03:26;0.40;;;0.40;;
45128;SDS011;35512;56.312;101.728;2023-03-01T04:06:00;0.40;;;0.40;;
45128;SDS011;35512;56.312;101.728;2023-03-01T04:08:29;0.40;;;0.40;;
45128;SDS011;35512;56.312;101.728;2023-03-01T04:10:59;0.40;;;0.40;;
45128;SDS011;35512;56.312;101.728;2023-03-01T04:13:50;0.40;;;0.40;;
45128;SDS011;35512;56.312;101.728;2023-03-01T04:16:21;0.40;;;0.40;;
45128;SDS011;35512;56.312;101.728;2023-03-01T04:18:51;0.40;;;0.40;;
45128;SDS011;35512;56.312;101.728;2023-03-01T04:21:24;0.43;;;0.43;;
45128;SDS011;35512;56.312;101.728;2023-03-01T04:23:53;0.40;;;0.40;;
45128;SDS011;35512;56.312;101.728;2023-03-01T04:26:22;0.50;;;0.50;;
45128;SDS011;35512;56.312;101.728;2023-03-01T04:28:53;0.40;;;0.40;;
45128;SDS011;35512;56.312;101.728;2023-03-01T04:31:23;0.40;;;0.40;;
45128;SDS011;35512;56.312;101.728;2023-03-01T04:33:53;0.47;;;0.47;;
45128;SDS011;35512;56.312;101.728;2023-03-01T04:36:25;0.40;;;0.40;;
45128;SDS011;35512;56.312;101.728;2023-03-01T04:38:56;0.40;;;0.40;;
45128;SDS011;35512;56.312;101.728;2023-03-01T04:41:25;0.40;;;0.40;;
45128;SDS011;35512;56.312;101.728;2023-03-01T04:43:54;0.40;;;0.40;;
45128;SDS011;35512;56.312;101.728;2023-03-01T04:46:23;0.40;;;0.40;;
45128;SDS011;35512;56.312;101.728;2023-03-01T04:52:13;0.50;;;0.50;;
45128;SDS011;35512;56.312;101.728;2023-03-01T04:54:42;0.50;;;0.50;;
45128;SDS011;35512;56.312;101.728;2023-03-01T04:57:11;0.50;;;0.50;;
45128;SDS011;35512;56.312;101.728;2023-03-01T04:59:40;0.50;;;0.50;;
45128;SDS011;35512;56.312;101.728;2023-03-01T05:02:08;0.50;;;0.50;;
45128;SDS011;35512;56.312;101.728;2023-03-01T05:04:38;0.50;;;0.50;;
45128;SDS011;35512;56.312;101.728;2023-03-01T05:07:07;0.50;;;0.50;;
45128;SDS011;35512;56.312;101.728;2023-03-01T05:09:36;0.40;;;0.40;;
45128;SDS011;35512;56.312;101.728;2023-03-01T05:12:05;0.40;;;0.40;;
45128;SDS011;35512;56.312;101.728;2023-03-01T05:14:34;0.50;;;0.50;;
45128;SDS011;35512;56.312;101.728;2023-03-01T05:17:03;0.40;;;0.40;;
45128;SDS011;35512;56.312;101.728;2023-03-01T05:19:32;0.50;;;0.50;;
45128;SDS011;35512;56.312;101.728;2023-03-01T05:22:00;0.45;;;0.45;;
45128;SDS011;35512;56.312;101.728;2023-03-01T05:24:30;0.40;;;0.40;;
45128;SDS011;35512;56.312;101.728;2023-03-01T05:27:01;0.40;;;0.40;;
45128;SDS011;35512;56.312;101.728;2023-03-01T05:30:03;0.50;;;0.50;;
45128;SDS011;35512;56.312;101.728;2023-03-01T05:32:42;0.50;;;0.50;;
45128;SDS011;35512;56.312;101.728;2023-03-01T05:35:14;0.50;;;0.50;;
45128;SDS011;35512;56.312;101.728;2023-03-01T05:37:45;0.50;;;0.50;;
45128;SDS011;35512;56.312;101.728;2023-03-01T05:40:16;0.50;;;0.50;;
45128;SDS011;35512;56.312;101.728;2023-03-01T05:42:49;0.40;;;0.40;;
45128;SDS011;35512;56.312;101.728;2023-03-01T05:45:22;0.40;;;0.40;;
45128;SDS011;35512;56.312;101.728;2023-03-01T05:47:53;0.35;;;0.35;;
45128;SDS011;35512;56.312;101.728;2023-03-01T05:50:26;0.30;;;0.30;;
45128;SDS011;35512;56.312;101.728;2023-03-01T05:53:03;0.40;;;0.40;;
45128;SDS011;35512;56.312;101.728;2023-03-01T05:55:38;0.30;;;0.30;;
45128;SDS011;35512;56.312;101.728;2023-03-01T05:58:11;0.40;;;0.40;;
45128;SDS011;35512;56.312;101.728;2023-03-01T06:00:45;0.30;;;0.30;;
45128;SDS011;35512;56.312;101.728;2023-03-01T06:03:17;0.40;;;0.40;;
45128;SDS011;35512;56.312;101.728;2023-03-01T06:05:46;0.30;;;0.30;;
45128;SDS011;35512;56.312;101.728;2023-03-01T06:08:15;0.38;;;0.38;;
45128;SDS011;35512;56.312;101.728;2023-03-01T06:10:44;0.30;;;0.30;;
45128;SDS011;35512;56.312;101.728;2023-03-01T06:13:15;0.30;;;0.30;;
45128;SDS011;35512;56.312;101.728;2023-03-01T06:15:44;0.30;;;0.30;;
45128;SDS011;35512;56.312;101.728;2023-03-01T06:18:13;0.30;;;0.30;;
45128;SDS011;35512;56.312;101.728;2023-03-01T06:20:42;0.32;;;0.32;;
45128;SDS011;35512;56.312;101.728;2023-03-01T06:23:10;0.50;;;0.50;;
45128;SDS011;35512;56.312;101.728;2023-03-01T06:25:39;0.35;;;0.35;;
45128;SDS011;35512;56.312;101.728;2023-03-01T06:28:08;0.50;;;0.50;;
45128;SDS011;35512;56.312;101.728;2023-03-01T06:30:37;0.40;;;0.40;;
45128;SDS011;35512;56.312;101.728;2023-03-01T06:33:06;0.30;;;0.30;;
45128;SDS011;35512;56.312;101.728;2023-03-01T06:35:35;0.30;;;0.30;;
45128;SDS011;35512;56.312;101.728;2023-03-01T06:38:04;0.30;;;0.30;;
45128;SDS011;35512;56.312;101.728;2023-03-01T06:40:34;0.30;;;0.30;;
45128;SDS011;35512;56.312;101.728;2023-03-01T06:43:03;0.30;;;0.30;;
45128;SDS011;35512;56.312;101.728;2023-03-01T06:45:33;0.30;;;0.30;;
45128;SDS011;35512;56.312;101.728;2023-03-01T06:48:05;0.30;;;0.30;;
45128;SDS011;35512;56.312;101.728;2023-03-01T06:50:35;0.40;;;0.40;;
45128;SDS011;35512;56.312;101.728;2023-03-01T06:53:04;0.30;;;0.30;;
45128;SDS011;35512;56.312;101.728;2023-03-01T06:55:33;0.40;;;0.40;;
45128;SDS011;35512;56.312;101.728;2023-03-01T06:58:02;0.40;;;0.40;;
45128;SDS011;35512;56.312;101.728;2023-03-01T07:00:31;0.40;;;0.40;;
45128;SDS011;35512;56.312;101.728;2023-03-01T07:03:01;0.30;;;0.30;;
45128;SDS011;35512;56.312;101.728;2023-03-01T07:05:32;0.40;;;0.40;;
45128;SDS011;35512;56.312;101.728;2023-03-01T07:08:01;0.30;;;0.30;;
45128;SDS011;35512;56.312;101.728;2023-03-01T07:10:30;0.30;;;0.30;;
45128;SDS011;35512;56.312;101.728;2023-03-01T07:12:59;0.40;;;0.40;;
45128;SDS011;35512;56.312;101.728;2023-03-01T07:15:28;0.30;;;0.30;;
45128;SDS011;35512;56.312;101.728;2023-03-01T07:17:57;0.40;;;0.40;;
45128;SDS011;35512;56.312;101.728;2023-03-01T07:20:26;0.30;;;0.30;;
45128;SDS011;35512;56.312;101.728;2023-03-01T07:22:55;0.40;;;0.40;;
45128;SDS011;35512;56.312;101.728;2023-03-01T07:25:26;0.30;;;0.30;;
45128;SDS011;35512;56.312;101.728;2023-03-01T07:27:58;0.30;;;0.30;;
45128;SDS011;35512;56.312;101.728;2023-03-01T07:30:27;0.30;;;0.30;;
45128;SDS011;35512;56.312;101.728;2023-03-01T07:32:57;0.30;;;0.30;;
45128;SDS011;35512;56.312;101.728;2023-03-01T07:35:26;0.30;;;0.30;;
45128;SDS011;35512;56.312;101.728;2023-03-01T07:37:56;0.30;;;0.30;;
45128;SDS011;35512;56.312;101.728;2023-03-01T07:40:25;0.35;;;0.35;;
45128;SDS011;35512;56.312;101.728;2023-03-01T07:42:57;0.40;;;0.40;;
45128;SDS011;35512;56.312;101.728;2023-03-01T07:45:27;0.35;;;0.35;;
45128;SDS011;35512;56.312;101.728;2023-03-01T07:47:57;0.30;;;0.30;;
45128;SDS011;35512;56.312;101.728;2023-03-01T07:50:31;0.30;;;0.30;;
45128;SDS011;35512;56.312;101.728;2023-03-01T07:53:05;0.30;;;0.30;;
45128;SDS011;35512;56.312;101.728;2023-03-01T07:55:34;0.30;;;0.30;;
45128;SDS011;35512;56.312;101.728;2023-03-01T07:58:03;0.30;;;0.30;;
45128;SDS011;35512;56.312;101.728;2023-03-01T08:00:33;0.38;;;0.38;;
45128;SDS011;35512;56.312;101.728;2023-03-01T08:03:02;0.40;;;0.40;;
45128;SDS011;35512;56.312;101.728;2023-03-01T08:05:31;0.32;;;0.32;;
45128;SDS011;35512;56.312;101.728;2023-03-01T08:08:00;0.30;;;0.30;;
45128;SDS011;35512;56.312;101.728;2023-03-01T08:10:29;0.40;;;0.40;;
45128;SDS011;35512;56.312;101.728;2023-03-01T08:12:58;0.30;;;0.30;;
45128;SDS011;35512;56.312;101.728;2023-03-01T08:15:27;0.30;;;0.30;;
45128;SDS011;35512;56.312;101.728;2023-03-01T08:17:55;0.30;;;0.30;;
45128;SDS011;35512;56.312;101.728;2023-03-01T08:20:24;0.32;;;0.32;;
45128;SDS011;35512;56.312;101.728;2023-03-01T08:22:53;0.30;;;0.30;;
45128;SDS011;35512;56.312;101.728;2023-03-01T08:25:22;0.40;;;0.40;;
45128;SDS011;35512;56.312;101.728;2023-03-01T08:27:51;0.40;;;0.40;;
45128;SDS011;35512;56.312;101.728;2023-03-01T08:30:20;0.30;;;0.30;;
45128;SDS011;35512;56.312;101.728;2023-03-01T08:32:49;0.30;;;0.30;;
45128;SDS011;35512;56.312;101.728;2023-03-01T08:35:19;0.40;;;0.40;;
45128;SDS011;35512;56.312;101.728;2023-03-01T08:37:48;0.40;;;0.40;;
45128;SDS011;35512;56.312;101.728;2023-03-01T08:40:19;0.30;;;0.30;;
45128;SDS011;35512;56.312;101.728;2023-03-01T08:42:48;0.40;;;0.40;;
45128;SDS011;35512;56.312;101.728;2023-03-01T08:45:17;0.30;;;0.30;;
45128;SDS011;35512;56.312;101.728;2023-03-01T08:47:46;0.35;;;0.35;;
45128;SDS011;35512;56.312;101.728;2023-03-01T08:50:15;0.40;;;0.40;;
45128;SDS011;35512;56.312;101.728;2023-03-01T08:52:44;0.40;;;0.40;;
45128;SDS011;35512;56.312;101.728;2023-03-01T08:55:13;0.40;;;0.40;;
45128;SDS011;35512;56.312;101.728;2023-03-01T08:57:45;0.40;;;0.40;;
45128;SDS011;35512;56.312;101.728;2023-03-01T09:00:14;0.40;;;0.40;;
45128;SDS011;35512;56.312;101.728;2023-03-01T09:02:44;0.40;;;0.40;;
45128;SDS011;35512;56.312;101.728;2023-03-01T09:05:13;0.40;;;0.40;;
45128;SDS011;35512;56.312;101.728;2023-03-01T09:07:42;0.40;;;0.40;;
45128;SDS011;35512;56.312;101.728;2023-03-01T09:10:12;0.40;;;0.40;;
45128;SDS011;35512;56.312;101.728;2023-03-01T09:12:41;0.30;;;0.30;;
45128;SDS011;35512;56.312;101.728;2023-03-01T09:15:10;0.40;;;0.40;;
45128;SDS011;35512;56.312;101.728;2023-03-01T09:17:39;0.40;;;0.40;;
45128;SDS011;35512;56.312;101.728;2023-03-01T09:20:08;0.40;;;0.40;;
45128;SDS011;35512;56.312;101.728;2023-03-01T09:22:37;0.40;;;0.40;;
45128;SDS011;35512;56.312;101.728;2023-03-01T09:25:06;0.40;;;0.40;;
45128;SDS011;35512;56.312;101.728;2023-03-01T09:27:35;0.40;;;0.40;;
45128;SDS011;35512;56.312;101.728;2023-03-01T09:30:04;0.40;;;0.40;;
45128;SDS011;35512;56.312;101.728;2023-03-01T09:32:33;0.40;;;0.40;;
45128;SDS011;35512;56.312;101.728;2023-03-01T09:35:02;0.40;;;0.40;;
45128;SDS011;35512;56.312;101.728;2023-03-01T09:37:33;0.35;;;0.35;;
45128;SDS011;35512;56.312;101.728;2023-03-01T09:40:04;0.40;;;0.40;;
45128;SDS011;35512;56.312;101.728;2023-03-01T09:42:35;0.32;;;0.32;;
45128;SDS011;35512;56.312;101.728;2023-03-01T09:45:18;0.40;;;0.40;;
45128;SDS011;35512;56.312;101.728;2023-03-01T09:48:17;0.40;;;0.40;;
45128;SDS011;35512;56.312;101.728;2023-03-01T09:50:50;0.40;;;0.40;;
45128;SDS011;35512;56.312;101.728;2023-03-01T09:53:26;0.40;;;0.40;;
45128;SDS011;35512;56.312;101.728;2023-03-01T09:58:54;0.40;;;0.40;;
45128;SDS011;35512;56.312;101.728;2023-03-01T10:01:32;0.40;;;0.40;;
45128;SDS011;35512;56.312;101.728;2023-03-01T10:09:30;0.40;;;0.40;;
45128;SDS011;35512;56.312;101.728;2023-03-01T10:12:04;0.40;;;0.40;;
45128;SDS011;35512;56.312;101.728;2023-03-01T10:14:57;0.40;;;0.40;;
45128;SDS011;35512;56.312;101.728;2023-03-01T10:17:34;0.40;;;0.40;;
45128;SDS011;35512;56.312;101.728;2023-03-01T10:20:14;0.40;;;0.40;;
45128;SDS011;35512;56.312;101.728;2023-03-01T10:22:47;0.40;;;0.40;;
45128;SDS011;35512;56.312;101.728;2023-03-01T10:31:42;0.40;;;0.40;;
45128;SDS011;35512;56.312;101.728;2023-03-01T10:34:16;0.40;;;0.40;;
45128;SDS011;35512;56.312;101.728;2023-03-01T10:36:48;0.40;;;0.40;;
45128;SDS011;35512;56.312;101.728;2023-03-01T10:39:20;0.40;;;0.40;;
45128;SDS011;35512;56.312;101.728;2023-03-01T10:41:55;0.38;;;0.38;;
45128;SDS011;35512;56.312;101.728;2023-03-01T10:44:37;0.40;;;0.40;;
45128;SDS011;35512;56.312;101.728;2023-03-01T10:47:19;0.40;;;0.40;;
45128;SDS011;35512;56.312;101.728;2023-03-01T10:49:54;0.40;;;0.40;;
45128;SDS011;35512;56.312;101.728;2023-03-01T10:52:31;0.40;;;0.40;;
45128;SDS011;35512;56.312;101.728;2023-03-01T10:55:21;0.40;;;0.40;;
45128;SDS011;35512;56.312;101.728;2023-03-01T10:58:19;0.40;;;0.40;;
45128;SDS011;35512;56.312;101.728;2023-03-01T11:00:57;0.40;;;0.40;;
45128;SDS011;35512;56.312;101.728;2023-03-01T11:03:35;0.40;;;0.40;;
45128;SDS011;35512;56.312;101.728;2023-03-01T11:08:42;0.35;;;0.35;;
45128;SDS011;35512;56.312;101.728;2023-03-01T11:14:06;0.40;;;0.40;;
45128;SDS011;35512;56.312;101.728;2023-03-01T11:20:01;0.40;;;0.40;;
45128;SDS011;35512;56.312;101.728;2023-03-01T11:22:49;0.40;;;0.40;;
45128;SDS011;35512;56.312;101.728;2023-03-01T11:25:26;0.30;;;0.30;;
45128;SDS011;35512;56.312;101.728;2023-03-01T11:27:59;0.40;;;0.40;;
45128;SDS011;35512;56.312;101.728;2023-03-01T11:36:32;0.40;;;0.40;;
45128;SDS011;35512;56.312;101.728;2023-03-01T11:39:20;0.40;;;0.40;;
45128;SDS011;35512;56.312;101.728;2023-03-01T11:41:52;0.40;;;0.40;;
45128;SDS011;35512;56.312;101.728;2023-03-01T11:44:46;0.30;;;0.30;;
45128;SDS011;35512;56.312;101.728;2023-03-01T11:58:10;0.32;;;0.32;;
45128;SDS011;35512;56.312;101.728;2023-03-01T12:01:24;0.40;;;0.40;;
45128;SDS011;35512;56.312;101.728;2023-03-01T12:07:00;0.40;;;0.40;;
45128;SDS011;35512;56.312;101.728;2023-03-01T12:12:30;0.40;;;0.40;;
45128;SDS011;35512;56.312;101.728;2023-03-01T12:18:18;0.40;;;0.40;;
45128;SDS011;35512;56.312;101.728;2023-03-01T12:33:41;0.38;;;0.38;;
45128;SDS011;35512;56.312;101.728;2023-03-01T12:39:29;0.30;;;0.30;;
45128;SDS011;35512;56.312;101.728;2023-03-01T12:51:28;0.30;;;0.30;;
45128;SDS011;35512;56.312;101.728;2023-03-01T12:54:25;0.40;;;0.40;;
45128;SDS011;35512;56.312;101.728;2023-03-01T13:00:22;0.30;;;0.30;;
45128;SDS011;35512;56.312;101.728;2023-03-01T13:05:42;0.40;;;0.40;;
45128;SDS011;35512;56.312;101.728;2023-03-01T13:11:41;0.30;;;0.30;;
45128;SDS011;35512;56.312;101.728;2023-03-01T13:14:57;0.30;;;0.30;;
45128;SDS011;35512;56.312;101.728;2023-03-01T13:17:00;0.35;;;0.35;;
45128;SDS011;35512;56.312;101.728;2023-03-01T13:19:29;0.40;;;0.40;;
45128;SDS011;35512;56.312;101.728;2023-03-01T13:22:00;0.30;;;0.30;;
45128;SDS011;35512;56.312;101.728;2023-03-01T13:25:02;0.40;;;0.40;;
45128;SDS011;35512;56.312;101.728;2023-03-01T13:27:46;0.30;;;0.30;;
45128;SDS011;35512;56.312;101.728;2023-03-01T13:35:56;0.40;;;0.40;;
45128;SDS011;35512;56.312;101.728;2023-03-01T13:41:15;0.30;;;0.30;;
45128;SDS011;35512;56.312;101.728;2023-03-01T13:46:59;0.32;;;0.32;;
45128;SDS011;35512;56.312;101.728;2023-03-01T13:52:40;0.30;;;0.30;;
45128;SDS011;35512;56.312;101.728;2023-03-01T13:55:20;0.40;;;0.40;;
45128;SDS011;35512;56.312;101.728;2023-03-01T13:58:26;0.30;;;0.30;;
45128;SDS011;35512;56.312;101.728;2023-03-01T14:01:02;0.40;;;0.40;;
45128;SDS011;35512;56.312;101.728;2023-03-01T14:03:39;0.40;;;0.40;;
45128;SDS011;35512;56.312;101.728;2023-03-01T14:06:16;0.40;;;0.40;;
45128;SDS011;35512;56.312;101.728;2023-03-01T14:08:50;0.30;;;0.30;;
45128;SDS011;35512;56.312;101.728;2023-03-01T14:14:51;0.30;;;0.30;;
45128;SDS011;35512;56.312;101.728;2023-03-01T14:20:17;0.32;;;0.32;;
45128;SDS011;35512;56.312;101.728;2023-03-01T14:22:50;0.40;;;0.40;;
45128;SDS011;35512;56.312;101.728;2023-03-01T14:25:30;0.30;;;0.30;;
45128;SDS011;35512;56.312;101.728;2023-03-01T14:30:48;0.30;;;0.30;;
45128;SDS011;35512;56.312;101.728;2023-03-01T14:36:01;0.30;;;0.30;;
45128;SDS011;35512;56.312;101.728;2023-03-01T14:38:39;0.30;;;0.30;;
45128;SDS011;35512;56.312;101.728;2023-03-01T14:41:16;0.30;;;0.30;;
45128;SDS011;35512;56.312;101.728;2023-03-01T14:43:57;0.30;;;0.30;;
45128;SDS011;35512;56.312;101.728;2023-03-01T14:49:22;0.40;;;0.40;;
45128;SDS011;35512;56.312;101.728;2023-03-01T14:52:05;0.30;;;0.30;;
45128;SDS011;35512;56.312;101.728;2023-03-01T14:54:42;0.30;;;0.30;;
45128;SDS011;35512;56.312;101.728;2023-03-01T14:59:47;0.38;;;0.38;;
45128;SDS011;35512;56.312;101.728;2023-03-01T15:02:19;0.40;;;0.40;;
45128;SDS011;35512;56.312;101.728;2023-03-01T15:04:52;0.40;;;0.40;;
45128;SDS011;35512;56.312;101.728;2023-03-01T15:07:26;0.40;;;0.40;;
45128;SDS011;35512;56.312;101.728;2023-03-01T15:09:59;0.40;;;0.40;;
45128;SDS011;35512;56.312;101.728;2023-03-01T15:12:36;0.30;;;0.30;;
45128;SDS011;35512;56.312;101.728;2023-03-01T15:15:20;0.40;;;0.40;;
45128;SDS011;35512;56.312;101.728;2023-03-01T15:18:13;0.40;;;0.40;;
45128;SDS011;35512;56.312;101.728;2023-03-01T15:20:46;0.40;;;0.40;;
45128;SDS011;35512;56.312;101.728;2023-03-01T15:23:26;0.40;;;0.40;;
45128;SDS011;35512;56.312;101.728;2023-03-01T15:25:58;0.40;;;0.40;;
45128;SDS011;35512;56.312;101.728;2023-03-01T15:28:31;0.40;;;0.40;;
45128;SDS011;35512;56.312;101.728;2023-03-01T15:31:22;0.40;;;0.40;;
45128;SDS011;35512;56.312;101.728;2023-03-01T15:33:52;0.40;;;0.40;;
45128;SDS011;35512;56.312;101.728;2023-03-01T15:36:56;0.40;;;0.40;;
45128;SDS011;35512;56.312;101.728;2023-03-01T15:39:41;0.30;;;0.30;;
45128;SDS011;35512;56.312;101.728;2023-03-01T15:45:08;0.35;;;0.35;;
45128;SDS011;35512;56.312;101.728;2023-03-01T15:47:59;0.30;;;0.30;;
45128;SDS011;35512;56.312;101.728;2023-03-01T15:50:34;0.40;;;0.40;;
45128;SDS011;35512;56.312;101.728;2023-03-01T15:53:10;0.38;;;0.38;;
45128;SDS011;35512;56.312;101.728;2023-03-01T15:55:42;0.40;;;0.40;;
45128;SDS011;35512;56.312;101.728;2023-03-01T15:58:14;0.32;;;0.32;;
45128;SDS011;35512;56.312;101.728;2023-03-01T16:00:46;0.40;;;0.40;;
45128;SDS011;35512;56.312;101.728;2023-03-01T16:03:28;0.30;;;0.30;;
45128;SDS011;35512;56.312;101.728;2023-03-01T16:05:57;0.30;;;0.30;;
45128;SDS011;35512;56.312;101.728;2023-03-01T16:08:26;0.40;;;0.40;;
45128;SDS011;35512;56.312;101.728;2023-03-01T16:10:55;0.40;;;0.40;;
45128;SDS011;35512;56.312;101.728;2023-03-01T16:13:24;0.40;;;0.40;;
45128;SDS011;35512;56.312;101.728;2023-03-01T16:15:55;0.40;;;0.40;;
45128;SDS011;35512;56.312;101.728;2023-03-01T16:18:24;0.40;;;0.40;;
45128;SDS011;35512;56.312;101.728;2023-03-01T16:20:53;0.40;;;0.40;;
45128;SDS011;35512;56.312;101.728;2023-03-01T16:23:22;0.30;;;0.30;;
45128;SDS011;35512;56.312;101.728;2023-03-01T16:25:53;0.40;;;0.40;;
45128;SDS011;35512;56.312;101.728;2023-03-01T16:28:22;0.35;;;0.35;;
45128;SDS011;35512;56.312;101.728;2023-03-01T16:30:50;0.35;;;0.35;;
45128;SDS011;35512;56.312;101.728;2023-03-01T16:33:20;0.30;;;0.30;;
45128;SDS011;35512;56.312;101.728;2023-03-01T16:36:06;0.40;;;0.40;;
45128;SDS011;35512;56.312;101.728;2023-03-01T16:38:39;0.40;;;0.40;;
45128;SDS011;35512;56.312;101.728;2023-03-01T16:41:11;0.40;;;0.40;;
45128;SDS011;35512;56.312;101.728;2023-03-01T16:43:42;0.40;;;0.40;;
45128;SDS011;35512;56.312;101.728;2023-03-01T16:46:12;0.30;;;0.30;;
45128;SDS011;35512;56.312;101.728;2023-03-01T16:48:43;0.40;;;0.40;;
45128;SDS011;35512;56.312;101.728;2023-03-01T16:51:13;0.40;;;0.40;;
45128;SDS011;35512;56.312;101.728;2023-03-01T16:53:42;0.40;;;0.40;;
45128;SDS011;35512;56.312;101.728;2023-03-01T16:56:14;0.32;;;0.32;;
45128;SDS011;35512;56.312;101.728;2023-03-01T16:58:43;0.30;;;0.30;;
45128;SDS011;35512;56.312;101.728;2023-03-01T17:01:17;0.40;;;0.40;;
45128;SDS011;35512;56.312;101.728;2023-03-01T17:03:49;0.40;;;0.40;;
45128;SDS011;35512;56.312;101.728;2023-03-01T17:06:20;0.30;;;0.30;;
45128;SDS011;35512;56.312;101.728;2023-03-01T17:08:50;0.40;;;0.40;;
45128;SDS011;35512;56.312;101.728;2023-03-01T17:11:19;0.30;;;0.30;;
45128;SDS011;35512;56.312;101.728;2023-03-01T17:13:48;0.40;;;0.40;;